< Cyclone 200105 2001 Season Cyclone 200107 >
Cyclone 200106 (ABIGAIL)
General InformationTrack Information on Google MapsDetailed Wind InformationList of All Images || ResourceGoogle EarthGE AnimationAtom FeedGeoJSON
Detalied Best Track (Time Zone = UTC)
Year Month Day Hour Lat. Long. Pressure (hPa) Wind (kt) Class Image Chart
2001 2 24 00 -16.5 146.1 992 40 3 Image --
2001 2 24 06 -16.5 144.5 996 40.7143 0 Image --
2001 2 24 12 -16.6 143.6 996 41.4286 0 Image --
2001 2 24 18 -16.5 142.3 996 42.1429 0 Image --
2001 2 25 00 -16.4 141.0 996 42.8571 0 Image --
2001 2 25 06 -16.3 140.8 994 43.5714 0 Image --
2001 2 25 12 -15.7 140.2 994 44.2857 0 Image --
2001 2 25 18 -15.7 140.0 990 45 3 Image --
2001 2 26 00 -15.8 139.7 986 50 4 Image --
2001 2 26 06 -16.2 139.4 975 60 4 Image --
2001 2 26 12 -16.5 138.5 970 65 5 Image --
2001 2 26 18 -16.6 137.8 975 60 4 Image --
2001 2 27 00 -16.8 136.9 990 40 3 Image --
2001 2 27 06 -17.1 136.0 992 0 0 Image --
2001 2 27 12 -17.9 135.5 992 0 0 Image --
2001 2 28 00 -17.9 134.0 992 0 0 Image --
2001 2 28 12 -16.4 132.0 992 0 0 Image --
2001 3 1 00 -17.4 130.5 998 0 0 Image --
2001 3 1 12 -17.4 128.5 995 0 0 Image --
2001 3 2 00 -18.4 127.0 995 0 0 Image --
2001 3 2 12 -18.9 126.0 994 0 0 Image --
2001 3 3 00 -19.4 124.5 992 0 0 Image --
2001 3 3 12 -19.9 124.5 993 0 0 Image --
2001 3 4 00 -20.4 124.4 994 0 0 Image --
2001 3 4 12 -21.4 124.3 994 0 0 Image --
2001 3 5 00 -22.4 124.0 993 0 0 Image --
2001 3 5 12 -22.9 125.0 995 0 0 Image --
2001 3 6 00 -24.4 127.0 996 0 0 Image --
2001 3 6 12 -24.9 126.5 996 0 0 Image --
2001 3 7 00 -25.4 126.0 1000 0 0 Image --
2001 3 7 12 -25.4 125.5 1002 0 0 Image --
2001 3 8 00 -26.4 124.5 1004 0 0 Image --
< Cyclone 200105 2001 Season Cyclone 200107 >

Help